sensor_id;sensor_type;location;lat;lon;timestamp;temperature;humidity
22781;DHT22;11557;50.884;4.322;2024-02-16T00:02:00;14.90;99.90
22781;DHT22;11557;50.884;4.322;2024-02-16T00:04:26;14.90;99.90
22781;DHT22;11557;50.884;4.322;2024-02-16T00:06:52;14.90;99.90
22781;DHT22;11557;50.884;4.322;2024-02-16T00:09:18;15.00;99.90
22781;DHT22;11557;50.884;4.322;2024-02-16T00:11:43;14.90;99.90
22781;DHT22;11557;50.884;4.322;2024-02-16T00:14:10;14.90;99.90
22781;DHT22;11557;50.884;4.322;2024-02-16T00:16:39;14.90;99.90
22781;DHT22;11557;50.884;4.322;2024-02-16T00:19:07;14.90;99.90
22781;DHT22;11557;50.884;4.322;2024-02-16T00:21:33;14.80;99.90
22781;DHT22;11557;50.884;4.322;2024-02-16T00:23:59;14.80;99.90
22781;DHT22;11557;50.884;4.322;2024-02-16T00:26:25;14.70;99.90
22781;DHT22;11557;50.884;4.322;2024-02-16T00:28:50;14.50;99.90
22781;DHT22;11557;50.884;4.322;2024-02-16T00:31:17;14.80;99.90
22781;DHT22;11557;50.884;4.322;2024-02-16T00:33:42;14.80;99.90
22781;DHT22;11557;50.884;4.322;2024-02-16T00:36:08;14.80;99.90
22781;DHT22;11557;50.884;4.322;2024-02-16T00:38:35;14.80;99.90
22781;DHT22;11557;50.884;4.322;2024-02-16T00:41:01;14.80;99.90
22781;DHT22;11557;50.884;4.322;2024-02-16T00:43:27;15.10;99.90
22781;DHT22;11557;50.884;4.322;2024-02-16T00:45:52;14.90;99.90
22781;DHT22;11557;50.884;4.322;2024-02-16T00:48:18;14.80;99.90
22781;DHT22;11557;50.884;4.322;2024-02-16T00:50:44;14.70;99.90
22781;DHT22;11557;50.884;4.322;2024-02-16T00:53:09;14.70;99.90
22781;DHT22;11557;50.884;4.322;2024-02-16T00:55:35;14.70;99.90
22781;DHT22;11557;50.884;4.322;2024-02-16T00:58:00;14.60;99.90
22781;DHT22;11557;50.884;4.322;2024-02-16T01:00:26;14.60;99.90
22781;DHT22;11557;50.884;4.322;2024-02-16T01:02:52;14.70;99.90
22781;DHT22;11557;50.884;4.322;2024-02-16T01:05:20;14.70;99.90
22781;DHT22;11557;50.884;4.322;2024-02-16T01:07:46;14.70;99.90
22781;DHT22;11557;50.884;4.322;2024-02-16T01:10:12;14.60;99.90
22781;DHT22;11557;50.884;4.322;2024-02-16T01:12:40;14.60;99.90
22781;DHT22;11557;50.884;4.322;2024-02-16T01:15:06;14.70;99.90
22781;DHT22;11557;50.884;4.322;2024-02-16T01:17:31;14.60;99.90
22781;DHT22;11557;50.884;4.322;2024-02-16T01:20:00;14.60;99.90
22781;DHT22;11557;50.884;4.322;2024-02-16T01:22:25;14.70;99.90
22781;DHT22;11557;50.884;4.322;2024-02-16T01:24:54;14.70;99.90
22781;DHT22;11557;50.884;4.322;2024-02-16T01:27:20;14.70;99.90
22781;DHT22;11557;50.884;4.322;2024-02-16T01:29:46;14.70;99.90
22781;DHT22;11557;50.884;4.322;2024-02-16T01:32:12;14.70;99.90
22781;DHT22;11557;50.884;4.322;2024-02-16T01:34:39;14.60;99.90
22781;DHT22;11557;50.884;4.322;2024-02-16T01:37:05;14.60;99.90
22781;DHT22;11557;50.884;4.322;2024-02-16T01:39:30;14.60;99.90
22781;DHT22;11557;50.884;4.322;2024-02-16T01:41:56;14.60;99.90
22781;DHT22;11557;50.884;4.322;2024-02-16T01:44:22;14.60;99.90
22781;DHT22;11557;50.884;4.322;2024-02-16T01:46:47;16.10;99.90
22781;DHT22;11557;50.884;4.322;2024-02-16T01:49:14;14.70;99.90
22781;DHT22;11557;50.884;4.322;2024-02-16T01:51:41;14.70;99.90
22781;DHT22;11557;50.884;4.322;2024-02-16T01:54:07;14.80;99.90
22781;DHT22;11557;50.884;4.322;2024-02-16T01:56:33;14.70;99.90
22781;DHT22;11557;50.884;4.322;2024-02-16T01:58:59;14.70;99.90
22781;DHT22;11557;50.884;4.322;2024-02-16T02:01:24;14.70;99.90
22781;DHT22;11557;50.884;4.322;2024-02-16T02:03:50;14.70;99.90
22781;DHT22;11557;50.884;4.322;2024-02-16T02:06:16;14.70;99.90
22781;DHT22;11557;50.884;4.322;2024-02-16T02:08:42;14.60;99.90
22781;DHT22;11557;50.884;4.322;2024-02-16T02:11:08;14.60;99.90
22781;DHT22;11557;50.884;4.322;2024-02-16T02:13:33;14.50;99.90
22781;DHT22;11557;50.884;4.322;2024-02-16T02:16:00;14.60;99.90
22781;DHT22;11557;50.884;4.322;2024-02-16T02:18:29;14.60;99.90
22781;DHT22;11557;50.884;4.322;2024-02-16T02:20:55;14.60;99.90
22781;DHT22;11557;50.884;4.322;2024-02-16T02:23:20;14.60;99.90
22781;DHT22;11557;50.884;4.322;2024-02-16T02:25:46;14.60;99.90
22781;DHT22;11557;50.884;4.322;2024-02-16T02:28:14;14.60;99.90
22781;DHT22;11557;50.884;4.322;2024-02-16T02:30:41;14.60;99.90
22781;DHT22;11557;50.884;4.322;2024-02-16T02:33:06;14.60;99.90
22781;DHT22;11557;50.884;4.322;2024-02-16T02:35:32;14.60;99.90
22781;DHT22;11557;50.884;4.322;2024-02-16T02:37:58;14.60;99.90
22781;DHT22;11557;50.884;4.322;2024-02-16T02:40:24;14.60;99.90
22781;DHT22;11557;50.884;4.322;2024-02-16T02:42:51;14.60;99.90
22781;DHT22;11557;50.884;4.322;2024-02-16T02:45:16;14.70;99.90
22781;DHT22;11557;50.884;4.322;2024-02-16T02:47:42;14.70;99.90
22781;DHT22;11557;50.884;4.322;2024-02-16T02:50:09;14.70;99.90
22781;DHT22;11557;50.884;4.322;2024-02-16T02:52:35;14.70;99.90
22781;DHT22;11557;50.884;4.322;2024-02-16T02:55:00;14.60;99.90
22781;DHT22;11557;50.884;4.322;2024-02-16T02:57:27;14.70;99.90
22781;DHT22;11557;50.884;4.322;2024-02-16T02:59:53;14.80;99.90
22781;DHT22;11557;50.884;4.322;2024-02-16T03:02:18;14.70;99.90
22781;DHT22;11557;50.884;4.322;2024-02-16T03:04:44;14.70;99.90
22781;DHT22;11557;50.884;4.322;2024-02-16T03:07:10;14.80;99.90
22781;DHT22;11557;50.884;4.322;2024-02-16T03:09:35;14.70;99.90
22781;DHT22;11557;50.884;4.322;2024-02-16T03:12:01;14.80;99.90
22781;DHT22;11557;50.884;4.322;2024-02-16T03:14:27;14.80;99.90
22781;DHT22;11557;50.884;4.322;2024-02-16T03:16:53;14.80;99.90
22781;DHT22;11557;50.884;4.322;2024-02-16T03:19:19;14.80;99.90
22781;DHT22;11557;50.884;4.322;2024-02-16T03:21:47;14.80;99.90
22781;DHT22;11557;50.884;4.322;2024-02-16T03:24:12;14.80;99.90
22781;DHT22;11557;50.884;4.322;2024-02-16T03:26:38;14.90;99.90
22781;DHT22;11557;50.884;4.322;2024-02-16T03:29:04;14.80;99.90
22781;DHT22;11557;50.884;4.322;2024-02-16T03:31:30;14.90;99.90
22781;DHT22;11557;50.884;4.322;2024-02-16T03:33:55;14.90;99.90
22781;DHT22;11557;50.884;4.322;2024-02-16T03:36:21;14.90;99.90
22781;DHT22;11557;50.884;4.322;2024-02-16T03:38:48;14.90;99.90
22781;DHT22;11557;50.884;4.322;2024-02-16T03:41:20;15.90;99.90
22781;DHT22;11557;50.884;4.322;2024-02-16T03:43:46;14.80;99.90
22781;DHT22;11557;50.884;4.322;2024-02-16T03:46:11;14.90;99.90
22781;DHT22;11557;50.884;4.322;2024-02-16T03:48:38;14.80;99.90
22781;DHT22;11557;50.884;4.322;2024-02-16T03:51:05;14.80;99.90
22781;DHT22;11557;50.884;4.322;2024-02-16T03:53:30;14.90;99.90
22781;DHT22;11557;50.884;4.322;2024-02-16T03:55:56;16.20;99.90
22781;DHT22;11557;50.884;4.322;2024-02-16T03:58:22;15.00;99.90
22781;DHT22;11557;50.884;4.322;2024-02-16T04:00:48;15.00;99.90
22781;DHT22;11557;50.884;4.322;2024-02-16T04:03:14;14.90;99.90
22781;DHT22;11557;50.884;4.322;2024-02-16T04:05:40;15.10;99.90
22781;DHT22;11557;50.884;4.322;2024-02-16T04:08:06;15.10;99.90
22781;DHT22;11557;50.884;4.322;2024-02-16T04:10:33;15.10;99.90
22781;DHT22;11557;50.884;4.322;2024-02-16T04:12:58;15.00;99.90
22781;DHT22;11557;50.884;4.322;2024-02-16T04:15:24;15.00;99.90
22781;DHT22;11557;50.884;4.322;2024-02-16T04:17:50;15.10;99.90
22781;DHT22;11557;50.884;4.322;2024-02-16T04:20:15;15.00;99.90
22781;DHT22;11557;50.884;4.322;2024-02-16T04:22:42;15.00;99.90
22781;DHT22;11557;50.884;4.322;2024-02-16T04:25:08;15.00;99.90
22781;DHT22;11557;50.884;4.322;2024-02-16T04:27:34;15.10;99.90
22781;DHT22;11557;50.884;4.322;2024-02-16T04:30:00;15.00;99.90
22781;DHT22;11557;50.884;4.322;2024-02-16T04:32:26;15.00;99.90
22781;DHT22;11557;50.884;4.322;2024-02-16T04:34:54;15.00;99.90
22781;DHT22;11557;50.884;4.322;2024-02-16T04:37:22;14.90;99.90
22781;DHT22;11557;50.884;4.322;2024-02-16T04:39:48;14.90;99.90
22781;DHT22;11557;50.884;4.322;2024-02-16T04:42:14;14.90;99.90
22781;DHT22;11557;50.884;4.322;2024-02-16T04:44:40;14.90;99.90
22781;DHT22;11557;50.884;4.322;2024-02-16T04:47:06;15.00;99.90
22781;DHT22;11557;50.884;4.322;2024-02-16T04:49:31;15.00;99.90
22781;DHT22;11557;50.884;4.322;2024-02-16T04:51:57;15.10;99.90
22781;DHT22;11557;50.884;4.322;2024-02-16T04:54:23;15.00;99.90
22781;DHT22;11557;50.884;4.322;2024-02-16T04:56:49;15.00;99.90
22781;DHT22;11557;50.884;4.322;2024-02-16T04:59:16;15.00;99.90
22781;DHT22;11557;50.884;4.322;2024-02-16T05:01:43;15.00;99.90
22781;DHT22;11557;50.884;4.322;2024-02-16T05:04:11;15.00;99.90
22781;DHT22;11557;50.884;4.322;2024-02-16T05:06:39;14.90;99.90
22781;DHT22;11557;50.884;4.322;2024-02-16T05:09:08;14.90;99.90
22781;DHT22;11557;50.884;4.322;2024-02-16T05:11:34;14.90;99.90
22781;DHT22;11557;50.884;4.322;2024-02-16T05:13:59;14.80;99.90
22781;DHT22;11557;50.884;4.322;2024-02-16T05:16:26;14.90;99.90
22781;DHT22;11557;50.884;4.322;2024-02-16T05:18:52;14.90;99.90
22781;DHT22;11557;50.884;4.322;2024-02-16T05:21:18;14.90;99.90
22781;DHT22;11557;50.884;4.322;2024-02-16T05:23:43;14.90;99.90
22781;DHT22;11557;50.884;4.322;2024-02-16T05:26:09;15.00;99.90
22781;DHT22;11557;50.884;4.322;2024-02-16T05:28:35;14.90;99.90
22781;DHT22;11557;50.884;4.322;2024-02-16T05:31:21;14.90;99.90
22781;DHT22;11557;50.884;4.322;2024-02-16T05:33:50;14.80;99.90
22781;DHT22;11557;50.884;4.322;2024-02-16T05:36:20;14.80;99.90
22781;DHT22;11557;50.884;4.322;2024-02-16T05:38:48;14.70;99.90
22781;DHT22;11557;50.884;4.322;2024-02-16T05:41:15;14.80;99.90
22781;DHT22;11557;50.884;4.322;2024-02-16T05:43:43;14.90;99.90
22781;DHT22;11557;50.884;4.322;2024-02-16T05:46:16;14.90;99.90
22781;DHT22;11557;50.884;4.322;2024-02-16T05:48:43;14.90;99.90
22781;DHT22;11557;50.884;4.322;2024-02-16T05:51:09;14.90;99.90
22781;DHT22;11557;50.884;4.322;2024-02-16T05:53:38;14.90;99.90
22781;DHT22;11557;50.884;4.322;2024-02-16T05:56:04;14.80;99.90
22781;DHT22;11557;50.884;4.322;2024-02-16T05:58:30;14.80;99.90
22781;DHT22;11557;50.884;4.322;2024-02-16T06:00:56;14.80;99.90
22781;DHT22;11557;50.884;4.322;2024-02-16T06:03:23;14.70;99.90
22781;DHT22;11557;50.884;4.322;2024-02-16T06:05:48;14.80;99.90
22781;DHT22;11557;50.884;4.322;2024-02-16T06:08:14;14.70;99.90
22781;DHT22;11557;50.884;4.322;2024-02-16T06:10:44;14.70;99.90
22781;DHT22;11557;50.884;4.322;2024-02-16T06:13:16;14.80;99.90
22781;DHT22;11557;50.884;4.322;2024-02-16T06:15:42;14.70;99.90
22781;DHT22;11557;50.884;4.322;2024-02-16T06:18:08;14.70;99.90
22781;DHT22;11557;50.884;4.322;2024-02-16T06:20:35;14.70;99.90
22781;DHT22;11557;50.884;4.322;2024-02-16T06:23:00;14.70;99.90
22781;DHT22;11557;50.884;4.322;2024-02-16T06:25:27;14.60;99.90
22781;DHT22;11557;50.884;4.322;2024-02-16T06:27:53;14.60;99.90
22781;DHT22;11557;50.884;4.322;2024-02-16T06:30:18;14.60;99.90
22781;DHT22;11557;50.884;4.322;2024-02-16T06:32:44;14.60;99.90
22781;DHT22;11557;50.884;4.322;2024-02-16T06:35:09;14.60;99.90
22781;DHT22;11557;50.884;4.322;2024-02-16T06:37:36;14.60;99.90
22781;DHT22;11557;50.884;4.322;2024-02-16T06:40:06;14.60;99.90
22781;DHT22;11557;50.884;4.322;2024-02-16T06:42:32;14.60;99.90
22781;DHT22;11557;50.884;4.322;2024-02-16T06:44:59;14.70;99.90
22781;DHT22;11557;50.884;4.322;2024-02-16T06:47:24;14.60;99.90
22781;DHT22;11557;50.884;4.322;2024-02-16T06:49:51;14.60;99.90
22781;DHT22;11557;50.884;4.322;2024-02-16T06:52:17;14.70;99.90
22781;DHT22;11557;50.884;4.322;2024-02-16T06:54:42;14.50;99.90
22781;DHT22;11557;50.884;4.322;2024-02-16T06:57:08;14.70;99.90
22781;DHT22;11557;50.884;4.322;2024-02-16T06:59:34;14.50;99.90
22781;DHT22;11557;50.884;4.322;2024-02-16T07:02:00;14.50;99.90
22781;DHT22;11557;50.884;4.322;2024-02-16T07:04:25;14.50;99.90
22781;DHT22;11557;50.884;4.322;2024-02-16T07:06:53;14.40;99.90
22781;DHT22;11557;50.884;4.322;2024-02-16T07:09:19;14.40;99.90
22781;DHT22;11557;50.884;4.322;2024-02-16T07:11:47;14.40;99.90
22781;DHT22;11557;50.884;4.322;2024-02-16T07:14:16;14.30;99.90
22781;DHT22;11557;50.884;4.322;2024-02-16T07:16:42;15.70;99.90
22781;DHT22;11557;50.884;4.322;2024-02-16T07:19:10;15.70;99.90
22781;DHT22;11557;50.884;4.322;2024-02-16T07:21:36;14.30;99.90
22781;DHT22;11557;50.884;4.322;2024-02-16T07:24:02;14.30;99.90
22781;DHT22;11557;50.884;4.322;2024-02-16T07:26:28;14.30;99.90
22781;DHT22;11557;50.884;4.322;2024-02-16T07:28:54;14.30;99.90
22781;DHT22;11557;50.884;4.322;2024-02-16T07:31:20;14.30;99.90
22781;DHT22;11557;50.884;4.322;2024-02-16T07:33:46;14.30;99.90
22781;DHT22;11557;50.884;4.322;2024-02-16T07:36:11;14.30;99.90
22781;DHT22;11557;50.884;4.322;2024-02-16T07:38:37;14.30;99.90
22781;DHT22;11557;50.884;4.322;2024-02-16T07:41:02;14.20;99.90
22781;DHT22;11557;50.884;4.322;2024-02-16T07:43:30;14.30;99.90
22781;DHT22;11557;50.884;4.322;2024-02-16T07:45:56;14.20;99.90
22781;DHT22;11557;50.884;4.322;2024-02-16T07:48:22;14.30;99.90
22781;DHT22;11557;50.884;4.322;2024-02-16T07:50:48;14.20;99.90
22781;DHT22;11557;50.884;4.322;2024-02-16T07:53:15;14.30;99.90
22781;DHT22;11557;50.884;4.322;2024-02-16T07:55:41;14.30;99.90
22781;DHT22;11557;50.884;4.322;2024-02-16T07:58:07;14.30;99.90
22781;DHT22;11557;50.884;4.322;2024-02-16T08:00:34;14.40;99.90
22781;DHT22;11557;50.884;4.322;2024-02-16T08:03:00;14.50;99.90
22781;DHT22;11557;50.884;4.322;2024-02-16T08:05:26;14.50;99.90
22781;DHT22;11557;50.884;4.322;2024-02-16T08:07:52;14.50;99.90
22781;DHT22;11557;50.884;4.322;2024-02-16T08:10:20;14.50;99.90
22781;DHT22;11557;50.884;4.322;2024-02-16T08:12:48;14.50;99.90
22781;DHT22;11557;50.884;4.322;2024-02-16T08:15:14;14.50;99.90
22781;DHT22;11557;50.884;4.322;2024-02-16T08:17:40;14.50;99.90
22781;DHT22;11557;50.884;4.322;2024-02-16T08:20:07;14.50;99.90
22781;DHT22;11557;50.884;4.322;2024-02-16T08:22:35;14.60;99.90
22781;DHT22;11557;50.884;4.322;2024-02-16T08:25:01;14.90;99.90
22781;DHT22;11557;50.884;4.322;2024-02-16T08:27:27;14.50;99.90
22781;DHT22;11557;50.884;4.322;2024-02-16T08:29:53;14.50;99.90
22781;DHT22;11557;50.884;4.322;2024-02-16T08:32:19;14.60;99.90
22781;DHT22;11557;50.884;4.322;2024-02-16T08:34:47;14.60;99.90
22781;DHT22;11557;50.884;4.322;2024-02-16T08:37:16;14.60;99.90
22781;DHT22;11557;50.884;4.322;2024-02-16T08:39:42;14.70;99.90
22781;DHT22;11557;50.884;4.322;2024-02-16T08:42:08;14.80;99.90
22781;DHT22;11557;50.884;4.322;2024-02-16T08:44:37;14.70;99.90
22781;DHT22;11557;50.884;4.322;2024-02-16T08:47:04;14.70;99.90
22781;DHT22;11557;50.884;4.322;2024-02-16T08:49:30;14.60;99.90
22781;DHT22;11557;50.884;4.322;2024-02-16T08:51:56;14.60;99.90
22781;DHT22;11557;50.884;4.322;2024-02-16T08:54:22;14.60;99.90
22781;DHT22;11557;50.884;4.322;2024-02-16T08:56:48;14.70;99.90
22781;DHT22;11557;50.884;4.322;2024-02-16T08:59:14;14.70;99.90
22781;DHT22;11557;50.884;4.322;2024-02-16T09:01:40;14.70;99.90
22781;DHT22;11557;50.884;4.322;2024-02-16T09:04:05;14.60;99.90
22781;DHT22;11557;50.884;4.322;2024-02-16T09:06:31;14.70;99.90
22781;DHT22;11557;50.884;4.322;2024-02-16T09:08:57;14.70;99.90
22781;DHT22;11557;50.884;4.322;2024-02-16T09:11:23;14.70;99.90
22781;DHT22;11557;50.884;4.322;2024-02-16T09:13:49;14.60;99.90
22781;DHT22;11557;50.884;4.322;2024-02-16T09:16:16;14.60;99.90
22781;DHT22;11557;50.884;4.322;2024-02-16T09:18:42;14.70;99.90
22781;DHT22;11557;50.884;4.322;2024-02-16T09:21:08;14.70;99.90
22781;DHT22;11557;50.884;4.322;2024-02-16T09:23:35;14.70;99.90
22781;DHT22;11557;50.884;4.322;2024-02-16T09:26:01;14.50;99.90
22781;DHT22;11557;50.884;4.322;2024-02-16T09:28:30;14.50;99.90
22781;DHT22;11557;50.884;4.322;2024-02-16T09:30:56;14.40;99.90
22781;DHT22;11557;50.884;4.322;2024-02-16T09:33:23;14.20;99.90
22781;DHT22;11557;50.884;4.322;2024-02-16T09:35:50;14.30;99.90
22781;DHT22;11557;50.884;4.322;2024-02-16T09:38:16;14.30;99.90
22781;DHT22;11557;50.884;4.322;2024-02-16T09:40:42;14.30;99.90
22781;DHT22;11557;50.884;4.322;2024-02-16T09:43:08;14.30;99.90
22781;DHT22;11557;50.884;4.322;2024-02-16T09:45:33;14.30;99.90
22781;DHT22;11557;50.884;4.322;2024-02-16T09:48:00;14.30;99.90
22781;DHT22;11557;50.884;4.322;2024-02-16T09:50:27;14.30;99.90
22781;DHT22;11557;50.884;4.322;2024-02-16T09:52:59;14.30;99.90
22781;DHT22;11557;50.884;4.322;2024-02-16T09:55:25;14.40;99.90
22781;DHT22;11557;50.884;4.322;2024-02-16T09:58:01;14.40;99.90
22781;DHT22;11557;50.884;4.322;2024-02-16T10:00:27;14.30;99.90
22781;DHT22;11557;50.884;4.322;2024-02-16T10:02:53;14.40;99.90
22781;DHT22;11557;50.884;4.322;2024-02-16T10:05:22;14.30;99.90
22781;DHT22;11557;50.884;4.322;2024-02-16T10:07:54;14.20;99.90
22781;DHT22;11557;50.884;4.322;2024-02-16T10:10:25;14.90;99.90
22781;DHT22;11557;50.884;4.322;2024-02-16T10:13:03;14.30;99.90
22781;DHT22;11557;50.884;4.322;2024-02-16T10:15:29;14.40;99.90
22781;DHT22;11557;50.884;4.322;2024-02-16T10:17:59;14.40;99.90
22781;DHT22;11557;50.884;4.322;2024-02-16T10:20:24;14.40;99.90
22781;DHT22;11557;50.884;4.322;2024-02-16T10:23:01;14.40;99.90
22781;DHT22;11557;50.884;4.322;2024-02-16T10:25:28;14.50;99.90
22781;DHT22;11557;50.884;4.322;2024-02-16T10:27:54;13.60;99.90
22781;DHT22;11557;50.884;4.322;2024-02-16T10:30:26;14.40;99.90
22781;DHT22;11557;50.884;4.322;2024-02-16T10:32:54;14.40;99.90
22781;DHT22;11557;50.884;4.322;2024-02-16T10:35:21;14.40;99.90
22781;DHT22;11557;50.884;4.322;2024-02-16T10:37:47;14.30;99.90
22781;DHT22;11557;50.884;4.322;2024-02-16T10:40:13;14.40;99.90
22781;DHT22;11557;50.884;4.322;2024-02-16T10:42:45;14.40;99.90
22781;DHT22;11557;50.884;4.322;2024-02-16T10:45:12;14.50;99.90
22781;DHT22;11557;50.884;4.322;2024-02-16T10:47:41;14.40;99.90
22781;DHT22;11557;50.884;4.322;2024-02-16T10:50:07;14.40;99.90
22781;DHT22;11557;50.884;4.322;2024-02-16T10:52:35;14.30;99.90
22781;DHT22;11557;50.884;4.322;2024-02-16T10:55:03;14.20;99.90
22781;DHT22;11557;50.884;4.322;2024-02-16T10:57:30;14.20;99.90
22781;DHT22;11557;50.884;4.322;2024-02-16T10:59:57;14.20;99.90
22781;DHT22;11557;50.884;4.322;2024-02-16T11:02:25;14.20;99.90
22781;DHT22;11557;50.884;4.322;2024-02-16T11:04:52;14.20;99.90
22781;DHT22;11557;50.884;4.322;2024-02-16T11:07:19;14.20;99.90
22781;DHT22;11557;50.884;4.322;2024-02-16T11:09:46;14.30;99.90
22781;DHT22;11557;50.884;4.322;2024-02-16T11:12:14;14.30;99.90
22781;DHT22;11557;50.884;4.322;2024-02-16T11:14:45;14.50;99.90
22781;DHT22;11557;50.884;4.322;2024-02-16T11:17:15;14.50;99.90
22781;DHT22;11557;50.884;4.322;2024-02-16T11:19:45;14.50;99.90
22781;DHT22;11557;50.884;4.322;2024-02-16T11:22:14;14.50;99.90
22781;DHT22;11557;50.884;4.322;2024-02-16T11:24:47;14.50;99.90
22781;DHT22;11557;50.884;4.322;2024-02-16T11:27:14;14.40;99.90
22781;DHT22;11557;50.884;4.322;2024-02-16T11:29:49;14.40;99.90
22781;DHT22;11557;50.884;4.322;2024-02-16T11:32:15;14.40;99.90
22781;DHT22;11557;50.884;4.322;2024-02-16T11:34:41;14.20;99.90
22781;DHT22;11557;50.884;4.322;2024-02-16T11:37:08;14.20;99.90
22781;DHT22;11557;50.884;4.322;2024-02-16T11:39:36;14.30;99.90
22781;DHT22;11557;50.884;4.322;2024-02-16T11:42:07;14.20;99.90
22781;DHT22;11557;50.884;4.322;2024-02-16T11:44:36;14.10;99.90
22781;DHT22;11557;50.884;4.322;2024-02-16T11:47:06;14.10;99.90
22781;DHT22;11557;50.884;4.322;2024-02-16T11:49:36;14.10;99.90
22781;DHT22;11557;50.884;4.322;2024-02-16T11:52:04;14.10;99.90
22781;DHT22;11557;50.884;4.322;2024-02-16T11:54:30;14.00;99.90
22781;DHT22;11557;50.884;4.322;2024-02-16T11:56:57;14.00;99.90
22781;DHT22;11557;50.884;4.322;2024-02-16T11:59:22;13.90;99.90
22781;DHT22;11557;50.884;4.322;2024-02-16T12:01:55;13.90;99.90
22781;DHT22;11557;50.884;4.322;2024-02-16T12:04:21;13.90;99.90
22781;DHT22;11557;50.884;4.322;2024-02-16T12:06:47;13.90;99.90
22781;DHT22;11557;50.884;4.322;2024-02-16T12:09:16;13.80;99.90
22781;DHT22;11557;50.884;4.322;2024-02-16T12:11:42;13.80;99.90
22781;DHT22;11557;50.884;4.322;2024-02-16T12:14:08;13.70;99.90
22781;DHT22;11557;50.884;4.322;2024-02-16T12:16:34;13.80;99.90
22781;DHT22;11557;50.884;4.322;2024-02-16T12:19:06;13.60;99.90
22781;DHT22;11557;50.884;4.322;2024-02-16T12:21:31;13.50;99.90
22781;DHT22;11557;50.884;4.322;2024-02-16T12:23:57;13.60;99.90
22781;DHT22;11557;50.884;4.322;2024-02-16T12:26:23;13.70;99.90
22781;DHT22;11557;50.884;4.322;2024-02-16T12:28:50;13.60;99.90
22781;DHT22;11557;50.884;4.322;2024-02-16T12:31:23;13.80;99.90
22781;DHT22;11557;50.884;4.322;2024-02-16T12:33:49;13.60;99.90
22781;DHT22;11557;50.884;4.322;2024-02-16T12:36:15;13.60;99.90
22781;DHT22;11557;50.884;4.322;2024-02-16T12:38:41;13.50;99.90
22781;DHT22;11557;50.884;4.322;2024-02-16T12:41:07;13.40;99.90
22781;DHT22;11557;50.884;4.322;2024-02-16T12:43:34;13.30;99.90
22781;DHT22;11557;50.884;4.322;2024-02-16T12:45:59;13.40;99.90
22781;DHT22;11557;50.884;4.322;2024-02-16T12:48:28;15.00;99.90
22781;DHT22;11557;50.884;4.322;2024-02-16T12:50:54;13.30;99.90
22781;DHT22;11557;50.884;4.322;2024-02-16T12:53:20;13.40;99.90
22781;DHT22;11557;50.884;4.322;2024-02-16T12:55:46;13.40;99.90
22781;DHT22;11557;50.884;4.322;2024-02-16T12:58:13;13.30;99.90
22781;DHT22;11557;50.884;4.322;2024-02-16T13:00:39;13.40;99.90
22781;DHT22;11557;50.884;4.322;2024-02-16T13:03:05;13.40;99.90
22781;DHT22;11557;50.884;4.322;2024-02-16T13:05:30;13.30;99.90
22781;DHT22;11557;50.884;4.322;2024-02-16T13:07:58;13.40;99.90
22781;DHT22;11557;50.884;4.322;2024-02-16T13:10:24;13.40;99.90
22781;DHT22;11557;50.884;4.322;2024-02-16T13:12:50;13.40;99.90
22781;DHT22;11557;50.884;4.322;2024-02-16T13:15:15;13.30;99.90
22781;DHT22;11557;50.884;4.322;2024-02-16T13:17:41;13.40;99.90
22781;DHT22;11557;50.884;4.322;2024-02-16T13:20:07;13.40;99.90
22781;DHT22;11557;50.884;4.322;2024-02-16T13:22:37;13.50;99.90
22781;DHT22;11557;50.884;4.322;2024-02-16T13:25:03;13.60;99.90
22781;DHT22;11557;50.884;4.322;2024-02-16T13:27:30;13.60;99.90
22781;DHT22;11557;50.884;4.322;2024-02-16T13:29:56;13.70;99.90
22781;DHT22;11557;50.884;4.322;2024-02-16T13:32:21;13.80;99.90
22781;DHT22;11557;50.884;4.322;2024-02-16T13:34:48;13.70;99.90
22781;DHT22;11557;50.884;4.322;2024-02-16T13:37:13;13.80;99.90
22781;DHT22;11557;50.884;4.322;2024-02-16T13:39:39;13.80;99.90
22781;DHT22;11557;50.884;4.322;2024-02-16T13:42:05;14.00;99.90
22781;DHT22;11557;50.884;4.322;2024-02-16T13:44:31;14.00;99.90
22781;DHT22;11557;50.884;4.322;2024-02-16T13:46:57;14.10;99.90
22781;DHT22;11557;50.884;4.322;2024-02-16T13:49:23;14.20;99.90
22781;DHT22;11557;50.884;4.322;2024-02-16T13:51:49;14.30;99.90
22781;DHT22;11557;50.884;4.322;2024-02-16T13:54:15;14.30;99.90
22781;DHT22;11557;50.884;4.322;2024-02-16T13:56:40;14.60;99.90
22781;DHT22;11557;50.884;4.322;2024-02-16T13:59:06;14.50;99.90
22781;DHT22;11557;50.884;4.322;2024-02-16T14:01:33;14.50;99.90
22781;DHT22;11557;50.884;4.322;2024-02-16T14:03:59;14.50;99.90
22781;DHT22;11557;50.884;4.322;2024-02-16T14:06:26;14.30;99.90
22781;DHT22;11557;50.884;4.322;2024-02-16T14:08:52;14.30;99.90
22781;DHT22;11557;50.884;4.322;2024-02-16T14:11:18;14.30;99.90
22781;DHT22;11557;50.884;4.322;2024-02-16T14:13:44;14.40;99.90
22781;DHT22;11557;50.884;4.322;2024-02-16T14:16:10;14.40;99.90
22781;DHT22;11557;50.884;4.322;2024-02-16T14:18:36;14.50;99.90
22781;DHT22;11557;50.884;4.322;2024-02-16T14:21:03;16.00;99.90
22781;DHT22;11557;50.884;4.322;2024-02-16T14:23:30;14.60;99.90
22781;DHT22;11557;50.884;4.322;2024-02-16T14:25:55;14.50;99.90
22781;DHT22;11557;50.884;4.322;2024-02-16T14:28:22;14.60;99.90
22781;DHT22;11557;50.884;4.322;2024-02-16T14:30:47;14.60;99.90
22781;DHT22;11557;50.884;4.322;2024-02-16T14:33:13;14.50;99.90
22781;DHT22;11557;50.884;4.322;2024-02-16T14:35:45;14.50;99.90
22781;DHT22;11557;50.884;4.322;2024-02-16T14:38:11;14.60;99.90
22781;DHT22;11557;50.884;4.322;2024-02-16T14:40:38;14.60;99.90
22781;DHT22;11557;50.884;4.322;2024-02-16T14:43:04;14.60;99.90
22781;DHT22;11557;50.884;4.322;2024-02-16T14:45:30;14.40;99.90
22781;DHT22;11557;50.884;4.322;2024-02-16T14:47:56;14.40;99.90
22781;DHT22;11557;50.884;4.322;2024-02-16T14:50:23;14.30;99.90
22781;DHT22;11557;50.884;4.322;2024-02-16T14:52:50;14.50;99.90
22781;DHT22;11557;50.884;4.322;2024-02-16T14:55:16;14.70;99.90
22781;DHT22;11557;50.884;4.322;2024-02-16T14:57:43;14.80;99.90
22781;DHT22;11557;50.884;4.322;2024-02-16T15:00:10;14.90;99.90
22781;DHT22;11557;50.884;4.322;2024-02-16T15:02:37;14.90;99.90
22781;DHT22;11557;50.884;4.322;2024-02-16T15:05:05;14.90;99.90
22781;DHT22;11557;50.884;4.322;2024-02-16T15:07:31;14.80;99.90
22781;DHT22;11557;50.884;4.322;2024-02-16T15:09:56;14.80;99.90
22781;DHT22;11557;50.884;4.322;2024-02-16T15:12:22;14.80;99.90
22781;DHT22;11557;50.884;4.322;2024-02-16T15:14:50;14.60;99.90
22781;DHT22;11557;50.884;4.322;2024-02-16T15:17:16;14.30;99.90
22781;DHT22;11557;50.884;4.322;2024-02-16T15:19:42;14.30;99.90
22781;DHT22;11557;50.884;4.322;2024-02-16T15:22:08;14.30;99.90
22781;DHT22;11557;50.884;4.322;2024-02-16T15:24:34;14.20;99.90
22781;DHT22;11557;50.884;4.322;2024-02-16T15:27:00;14.20;99.90